Aviation Digital Data Service (ADDS)

Output produced by METARs form (0149 UTC 16 January 2019)
found at http://www.aviationweather.gov/metar/data/
 
TAF TNCA 152130Z 1600/1624 09015KT 9999 FEW018 
     TEMPO 1606/1612 BKN014